Dallas, Texas
Traffic Map
Current Weather Conditions
Dallas, Texas
Overcast
Overcast
27°
Feels Like: 30°
Wind Chill: 27° Ceiling: 9000
Heat Index: 30° Visibility: 10mi
Dew Point: 22° Wind: 12mph
Humidity: 74% Direction: 200° (SSW)
Pressure: 29.93in Gusts: 20mph
Raw Report DataKDAL 030953Z 20010G17KT 10SM FEW018 BKN090 OVC170 27/22 A2993 RMK AO2 SLP125 T02720222
Traffic Incident Summary
Active as of:
Severity:
Category:
InformationThere was an issue retrieving the traffic information for this location. Please try a different location or try again shortly.
Advertisements
Track Severe Weather on mobile